Time;durP1;ratioP1;P1;durP2;ratioP2;P2;SDS_P1;SDS_P2;PMS_P1;PMS_P2;Temp;Humidity;BMP_temperature;BMP_pressure;BME280_temperature;BME280_humidity;BME280_pressure;Samples;Min_cycle;Max_cycle;Signal;HPM_P1;HPM_P2
2021/12/21 00:02:11;;;;;;;11.48;7.10;;;-4.00;99.90;;;;;;5092662;28;20027;-60
2021/12/21 00:04:36;;;;;;;10.25;7.85;;;-4.00;99.90;;;;;;5092867;28;20024;-60
2021/12/21 00:07:02;;;;;;;10.70;7.13;;;-4.10;99.90;;;;;;5093081;28;20031;-60
2021/12/21 00:09:31;;;;;;;13.68;7.22;;;-4.10;99.90;;;;;;5092855;28;20025;-59
2021/12/21 00:11:58;;;;;;;15.90;8.15;;;-4.10;99.90;;;;;;5092814;28;20024;-59
2021/12/21 00:17:10;;;;;;;8.27;7.20;;;-4.10;99.90;;;;;;5092765;28;20047;-60
2021/12/21 00:20:08;;;;;;;11.80;6.55;;;-4.20;99.90;;;;;;5091172;28;20046;-59
2021/12/21 00:24:59;;;;;;;9.98;6.63;;;-4.20;99.90;;;;;;5092754;28;20070;-59
2021/12/21 00:27:24;;;;;;;12.57;6.85;;;-4.20;99.90;;;;;;5092493;28;20020;-59
2021/12/21 00:29:50;;;;;;;8.77;6.95;;;-4.20;99.90;;;;;;5091498;28;20020;-60
2021/12/21 00:32:16;;;;;;;10.93;6.95;;;-4.20;99.90;;;;;;5091537;28;20031;-60
2021/12/21 00:34:42;;;;;;;15.02;7.80;;;-4.30;99.90;;;;;;5073221;28;20028;-60
2021/12/21 00:37:07;;;;;;;15.98;7.90;;;-4.30;99.90;;;;;;5090721;28;20028;-60
2021/12/21 00:39:34;;;;;;;11.45;7.70;;;-4.30;99.90;;;;;;5091653;28;20039;-60
2021/12/21 00:42:01;;;;;;;15.90;7.35;;;-4.30;99.90;;;;;;5091798;28;20020;-59
2021/12/21 00:44:27;;;;;;;10.55;7.75;;;-4.30;99.90;;;;;;5091637;28;20095;-59
2021/12/21 00:46:52;;;;;;;9.90;7.53;;;-4.30;99.90;;;;;;5091577;28;20016;-59
2021/12/21 00:49:18;;;;;;;8.75;7.65;;;-4.30;99.90;;;;;;5091236;28;20023;-60
2021/12/21 00:51:46;;;;;;;19.25;7.32;;;-4.40;99.90;;;;;;5091493;28;20150;-60
2021/12/21 00:54:12;;;;;;;13.27;7.93;;;-4.40;99.90;;;;;;5091232;28;20024;-60
2021/12/21 00:56:38;;;;;;;11.48;7.57;;;-4.40;99.90;;;;;;5091488;28;20493;-60
2021/12/21 00:59:05;;;;;;;9.55;8.00;;;-4.50;99.90;;;;;;5091827;28;20028;-59
2021/12/21 01:01:32;;;;;;;16.77;9.15;;;-4.40;99.90;;;;;;5073712;28;20050;-59
2021/12/21 01:04:00;;;;;;;14.75;8.20;;;-4.40;99.90;;;;;;5092122;28;20024;-59
2021/12/21 01:06:37;;;;;;;15.27;7.80;;;-4.40;99.90;;;;;;5090982;28;20027;-60
2021/12/21 01:11:43;;;;;;;17.13;10.77;;;-4.40;99.90;;;;;;5091821;28;20489;-60
2021/12/21 01:22:08;;;;;;;17.08;12.18;;;-4.40;99.90;;;;;;5057235;28;20040;-59
2021/12/21 01:24:50;;;;;;;18.65;9.63;;;-4.50;99.90;;;;;;5091680;28;20020;-59
2021/12/21 01:27:36;;;;;;;14.15;8.93;;;-4.50;99.90;;;;;;5073182;28;20027;-60
2021/12/21 01:35:15;;;;;;;11.00;9.13;;;-4.50;99.90;;;;;;5089984;28;20034;-59
2021/12/21 01:50:37;;;;;;;12.82;8.18;;;-4.50;99.90;;;;;;5090759;28;20047;-59
2021/12/21 01:53:03;;;;;;;10.30;8.13;;;-4.60;99.90;;;;;;5090920;28;20032;-59
2021/12/21 01:55:29;;;;;;;12.65;8.35;;;-4.60;99.90;;;;;;5091228;28;20437;-59
2021/12/21 01:57:55;;;;;;;14.23;8.85;;;-4.60;99.90;;;;;;5091034;28;20024;-59
2021/12/21 02:00:21;;;;;;;11.85;7.75;;;-4.60;99.90;;;;;;5090907;28;20078;-59
2021/12/21 02:02:47;;;;;;;12.38;7.68;;;-4.70;99.90;;;;;;5090191;28;20109;-60
2021/12/21 02:05:12;;;;;;;9.63;7.78;;;-4.70;99.90;;;;;;5089823;28;20027;-60
2021/12/21 02:07:39;;;;;;;16.27;7.93;;;-4.70;99.90;;;;;;5090217;28;20051;-60
2021/12/21 02:10:05;;;;;;;11.50;8.02;;;-4.70;99.90;;;;;;5090059;28;20024;-59
2021/12/21 02:12:31;;;;;;;13.50;7.57;;;-4.80;99.90;;;;;;5090119;28;20035;-60
2021/12/21 02:14:59;;;;;;;14.18;7.53;;;-4.70;99.90;;;;;;5090189;28;20028;-59
2021/12/21 02:22:58;;;;;;;14.75;7.70;;;-4.80;99.90;;;;;;5070069;28;20490;-59
2021/12/21 02:30:21;;;;;;;9.02;6.82;;;-4.90;99.90;;;;;;5072883;28;20025;-59
2021/12/21 02:32:48;;;;;;;9.98;7.15;;;-4.90;99.90;;;;;;5073587;28;20048;-60
2021/12/21 02:35:13;;;;;;;9.55;7.00;;;-4.90;99.90;;;;;;5073093;28;20027;-60
2021/12/21 02:37:39;;;;;;;8.50;6.85;;;-4.90;99.90;;;;;;5073544;28;20111;-59
2021/12/21 02:40:05;;;;;;;8.73;7.07;;;-5.00;99.90;;;;;;5073613;28;20071;-59
2021/12/21 02:42:31;;;;;;;12.90;9.30;;;-4.90;99.90;;;;;;5074278;28;20033;-60
2021/12/21 02:44:57;;;;;;;9.57;7.53;;;-4.90;99.90;;;;;;5072987;28;20020;-60
2021/12/21 02:47:23;;;;;;;10.25;7.28;;;-5.00;99.90;;;;;;5073033;28;20055;-60
2021/12/21 02:49:49;;;;;;;10.23;8.63;;;-5.10;99.90;;;;;;5073074;28;20136;-59
2021/12/21 02:52:14;;;;;;;13.82;8.13;;;-5.10;99.90;;;;;;5073142;28;20028;-59
2021/12/21 02:54:40;;;;;;;9.45;7.65;;;-5.10;99.90;;;;;;5072705;28;20039;-59
2021/12/21 02:57:06;;;;;;;11.52;7.50;;;-5.00;99.90;;;;;;5074224;28;20070;-59
2021/12/21 02:59:32;;;;;;;8.75;6.93;;;-5.00;99.90;;;;;;5072597;28;20460;-59
2021/12/21 03:01:58;;;;;;;11.13;8.35;;;-5.10;99.90;;;;;;5074094;28;20025;-60
2021/12/21 03:04:23;;;;;;;9.20;7.55;;;-5.00;99.90;;;;;;5073414;28;20034;-59
2021/12/21 03:11:57;;;;;;;11.40;8.40;;;-5.10;99.90;;;;;;5072656;28;20052;-59
2021/12/21 03:14:24;;;;;;;13.35;7.85;;;-5.10;99.90;;;;;;5073336;28;20443;-59
2021/12/21 03:16:50;;;;;;;12.98;8.38;;;-5.10;99.90;;;;;;5083156;28;20090;-60
2021/12/21 03:19:15;;;;;;;12.30;7.72;;;-5.10;99.90;;;;;;5093528;28;20036;-60
2021/12/21 03:21:41;;;;;;;14.23;7.65;;;-5.10;99.90;;;;;;5093862;28;20123;-59
2021/12/21 03:24:08;;;;;;;9.48;7.15;;;-5.20;99.90;;;;;;5093630;28;20067;-59
2021/12/21 03:26:34;;;;;;;10.27;8.27;;;-5.20;99.90;;;;;;5093397;28;20024;-59
2021/12/21 03:29:00;;;;;;;8.65;7.32;;;-5.20;99.90;;;;;;5093748;28;20115;-60
2021/12/21 03:31:26;;;;;;;9.23;7.13;;;-5.20;99.90;;;;;;5092266;28;20020;-59
2021/12/21 03:33:52;;;;;;;7.95;7.18;;;-5.20;99.90;;;;;;5093649;28;20054;-59
2021/12/21 03:36:19;;;;;;;8.23;7.15;;;-5.10;99.90;;;;;;5093571;28;20024;-59
2021/12/21 03:38:52;;;;;;;10.00;7.85;;;-5.10;99.90;;;;;;5092133;28;20116;-59
2021/12/21 03:41:19;;;;;;;;;;;-5.20;99.90;;;;;;5092483;28;20021;-59
2021/12/21 03:43:46;;;;;;;8.98;6.47;;;-5.10;99.90;;;;;;5091827;28;19908;-59
2021/12/21 03:46:14;;;;;;;9.70;7.45;;;-5.20;99.90;;;;;;5090836;28;20111;-59
2021/12/21 03:48:43;;;;;;;8.52;7.15;;;-5.20;99.90;;;;;;5092380;28;20062;-59
2021/12/21 03:51:10;;;;;;;10.93;7.20;;;-5.20;99.90;;;;;;5091873;28;20391;-60
2021/12/21 03:53:36;;;;;;;15.95;8.23;;;-5.20;99.90;;;;;;5091961;28;20062;-59
2021/12/21 03:56:23;;;;;;;7.65;6.80;;;-5.20;99.90;;;;;;5093252;28;20101;-59
2021/12/21 03:58:49;;;;;;;8.82;7.30;;;-5.20;99.90;;;;;;5092960;28;20028;-60
2021/12/21 04:01:15;;;;;;;9.45;7.22;;;-5.30;99.90;;;;;;5093029;28;20024;-59
2021/12/21 04:03:41;;;;;;;8.50;6.57;;;-5.20;99.90;;;;;;5093073;28;20023;-59
2021/12/21 04:06:06;;;;;;;11.85;7.38;;;-5.30;99.90;;;;;;5092253;28;20106;-59
2021/12/21 04:08:34;;;;;;;9.63;6.80;;;-5.30;99.90;;;;;;5092962;28;20034;-60
2021/12/21 04:11:01;;;;;;;9.80;8.60;;;-5.30;99.90;;;;;;5092793;28;20016;-59
2021/12/21 04:13:27;;;;;;;16.48;7.53;;;-5.30;99.90;;;;;;5092827;28;20028;-59
2021/12/21 04:15:54;;;;;;;8.70;7.38;;;-5.30;99.90;;;;;;5092244;28;20048;-59
2021/12/21 04:18:22;;;;;;;16.67;8.63;;;-5.30;99.90;;;;;;5090773;28;20024;-59
2021/12/21 04:20:49;;;;;;;11.52;7.38;;;-5.40;99.90;;;;;;5090835;28;20035;-60
2021/12/21 04:23:15;;;;;;;8.88;8.07;;;-5.30;99.90;;;;;;5090711;28;20023;-60
2021/12/21 04:25:41;;;;;;;8.20;7.50;;;-5.30;99.90;;;;;;5090875;28;20024;-59
2021/12/21 04:28:07;;;;;;;12.32;7.13;;;-5.40;99.90;;;;;;5074118;28;20070;-59
2021/12/21 04:30:32;;;;;;;12.60;7.38;;;-5.40;99.90;;;;;;5091635;28;20016;-60
2021/12/21 04:32:58;;;;;;;8.70;7.40;;;-5.30;99.90;;;;;;5073478;28;20032;-59
2021/12/21 04:35:24;;;;;;;11.05;8.02;;;-5.20;99.90;;;;;;5091101;28;20060;-59
2021/12/21 04:38:13;;;;;;;10.68;7.97;;;-5.20;99.90;;;;;;5091123;28;20506;-59
2021/12/21 04:40:42;;;;;;;12.82;7.78;;;-5.20;99.90;;;;;;5090563;28;20089;-59
2021/12/21 04:43:08;;;;;;;11.93;7.88;;;-5.20;99.90;;;;;;5091711;28;20054;-60
2021/12/21 04:45:34;;;;;;;12.25;7.75;;;-5.20;99.90;;;;;;5090172;28;20020;-59
2021/12/21 04:48:00;;;;;;;12.55;8.85;;;-5.20;99.90;;;;;;5090061;28;20067;-59
2021/12/21 04:50:26;;;;;;;11.60;7.78;;;-5.30;99.90;;;;;;5089442;28;20428;-59
2021/12/21 04:52:51;;;;;;;13.75;7.65;;;-5.20;99.90;;;;;;5091367;28;20028;-59
2021/12/21 04:55:17;;;;;;;14.52;7.63;;;-5.20;99.90;;;;;;5090490;28;20286;-59
2021/12/21 04:57:43;;;;;;;10.32;8.38;;;-5.20;99.90;;;;;;5090856;28;20027;-59
2021/12/21 05:00:12;;;;;;;10.75;8.82;;;-5.10;99.90;;;;;;5091989;28;20024;-59
2021/12/21 05:02:38;;;;;;;10.23;7.97;;;-5.00;99.90;;;;;;5091706;28;20039;-59
2021/12/21 05:05:04;;;;;;;11.10;9.57;;;-4.90;99.90;;;;;;5090442;28;20028;-59
2021/12/21 05:07:32;;;;;;;13.23;8.43;;;-4.70;99.90;;;;;;5073215;28;20031;-60
2021/12/21 05:10:00;;;;;;;15.05;8.25;;;-4.60;99.90;;;;;;5091983;28;20158;-59
2021/12/21 05:12:27;;;;;;;10.07;7.43;;;-4.50;99.90;;;;;;5091702;28;20024;-59
2021/12/21 05:14:53;;;;;;;18.13;12.20;;;-4.40;99.90;;;;;;5073667;28;20102;-60
2021/12/21 05:17:19;;;;;;;30.45;16.58;;;-4.20;99.90;;;;;;5091549;28;20044;-59
2021/12/21 05:19:45;;;;;;;37.20;19.35;;;-3.80;99.90;;;;;;5091926;28;20108;-60
2021/12/21 05:22:10;;;;;;;38.50;23.33;;;-3.50;99.90;;;;;;5090944;28;20036;-59
2021/12/21 05:24:36;;;;;;;37.05;22.90;;;-3.20;99.90;;;;;;5090375;28;20540;-60
2021/12/21 05:27:02;;;;;;;42.35;22.13;;;-3.00;99.90;;;;;;5071682;28;20078;-60
2021/12/21 05:29:31;;;;;;;35.15;22.10;;;-2.90;99.90;;;;;;5089877;28;20032;-60
2021/12/21 05:31:58;;;;;;;39.75;24.30;;;-2.70;99.90;;;;;;5088554;28;20032;-60
2021/12/21 05:34:25;;;;;;;44.53;27.40;;;-2.60;99.90;;;;;;5089726;28;20070;-59
2021/12/21 05:36:50;;;;;;;42.83;24.88;;;-2.50;99.90;;;;;;5088414;28;20028;-60
2021/12/21 05:39:20;;;;;;;49.42;28.10;;;-2.40;99.90;;;;;;5088615;28;20024;-60
2021/12/21 05:44:14;;;;;;;44.50;25.17;;;-2.30;99.90;;;;;;5089950;28;20586;-60
2021/12/21 05:46:40;;;;;;;39.33;24.95;;;-2.30;99.90;;;;;;5089580;28;20013;-60
2021/12/21 05:49:05;;;;;;;43.72;26.65;;;-2.30;99.90;;;;;;5089748;28;20012;-60
2021/12/21 05:51:31;;;;;;;51.88;28.38;;;-2.20;99.90;;;;;;5089728;28;20475;-60
2021/12/21 05:53:57;;;;;;;45.67;26.25;;;-2.20;99.90;;;;;;5090764;28;20048;-59
2021/12/21 05:56:22;;;;;;;44.50;26.90;;;-2.20;99.90;;;;;;5071941;28;20103;-60
2021/12/21 05:58:48;;;;;;;35.00;21.77;;;-2.20;99.90;;;;;;5089965;28;20321;-59
2021/12/21 06:01:14;;;;;;;37.33;22.67;;;-2.20;99.90;;;;;;5091970;28;20020;-60
2021/12/21 06:03:40;;;;;;;29.80;20.45;;;-2.30;99.90;;;;;;5094075;28;20111;-59
2021/12/21 06:06:13;;;;;;;27.88;21.42;;;-2.40;99.90;;;;;;5093393;28;20398;-59
2021/12/21 06:08:40;;;;;;;30.30;20.95;;;-2.50;99.90;;;;;;5093746;28;20074;-60
2021/12/21 06:11:07;;;;;;;31.73;21.17;;;-2.50;99.90;;;;;;5093826;28;20035;-59
2021/12/21 06:27:05;;;;;;;25.42;18.75;;;-2.80;99.90;;;;;;5092880;28;20054;-59
2021/12/21 06:29:31;;;;;;;25.80;18.90;;;-2.80;99.90;;;;;;5092886;28;20020;-59
2021/12/21 06:31:57;;;;;;;27.80;18.73;;;-2.90;99.90;;;;;;5075410;28;20027;-59
2021/12/21 06:34:23;;;;;;;25.80;18.38;;;-2.90;99.90;;;;;;5093436;28;20367;-59
2021/12/21 06:36:49;;;;;;;32.75;18.17;;;-2.90;99.90;;;;;;5093813;28;20012;-59
2021/12/21 06:39:15;;;;;;;55.72;23.58;;;-3.00;99.90;;;;;;5092439;28;20431;-59
2021/12/21 06:41:41;;;;;;;33.53;19.80;;;-3.00;99.90;;;;;;5092297;28;20039;-59
2021/12/21 06:44:09;;;;;;;34.10;18.52;;;-2.90;99.90;;;;;;5092460;28;20020;-59
2021/12/21 06:51:52;;;;;;;35.72;21.00;;;-2.80;99.90;;;;;;5077051;28;20115;-59
2021/12/21 06:54:19;;;;;;;33.00;21.75;;;-2.70;99.90;;;;;;5093121;28;20027;-59
2021/12/21 06:56:45;;;;;;;40.22;23.48;;;-2.70;99.90;;;;;;5093067;28;20561;-59
2021/12/21 06:59:11;;;;;;;39.05;23.77;;;-2.70;99.90;;;;;;5074588;28;20032;-59
2021/12/21 07:01:39;;;;;;;42.80;26.13;;;-2.60;99.90;;;;;;5092957;28;20029;-59
2021/12/21 07:04:07;;;;;;;48.95;27.02;;;-2.60;99.90;;;;;;5093202;28;20076;-59
2021/12/21 07:06:38;;;;;;;39.63;26.40;;;-2.40;99.90;;;;;;5093040;28;20047;-59
2021/12/21 07:11:46;;;;;;;42.25;24.70;;;-2.40;99.90;;;;;;5092848;28;20593;-59
2021/12/21 07:19:44;;;;;;;39.70;25.40;;;-2.50;99.90;;;;;;5092808;28;20051;-59
2021/12/21 07:22:10;;;;;;;45.33;22.83;;;-2.50;99.90;;;;;;5092534;28;20375;-59
2021/12/21 07:24:36;;;;;;;38.15;22.77;;;-2.60;99.90;;;;;;5092470;28;20103;-59
2021/12/21 07:27:02;;;;;;;38.78;24.25;;;-2.60;99.90;;;;;;5092763;28;20038;-59
2021/12/21 07:29:28;;;;;;;36.35;24.48;;;-2.60;99.90;;;;;;5074190;28;20024;-59
2021/12/21 07:31:54;;;;;;;43.55;25.27;;;-2.60;99.90;;;;;;5093189;28;20036;-59
2021/12/21 07:34:20;;;;;;;44.55;26.83;;;-2.70;99.90;;;;;;5092292;28;20517;-60
2021/12/21 07:36:46;;;;;;;49.22;28.23;;;-2.70;99.90;;;;;;5092416;28;20115;-59
2021/12/21 07:39:14;;;;;;;52.60;28.45;;;-2.80;99.90;;;;;;5092206;28;20438;-59
2021/12/21 07:41:41;;;;;;;43.90;26.38;;;-2.80;99.90;;;;;;5092139;28;20039;-60
2021/12/21 07:44:07;;;;;;;41.47;25.15;;;-2.80;99.90;;;;;;5092138;28;20032;-60
2021/12/21 07:46:33;;;;;;;45.70;26.42;;;-2.80;99.90;;;;;;5092359;28;20027;-59
2021/12/21 07:48:59;;;;;;;39.70;24.95;;;-2.80;99.90;;;;;;5092168;28;20471;-60
2021/12/21 07:51:25;;;;;;;39.22;24.33;;;-2.70;99.90;;;;;;5091924;28;20032;-59
2021/12/21 07:53:51;;;;;;;38.35;22.73;;;-2.70;99.90;;;;;;5091850;28;20008;-59
2021/12/21 07:56:17;;;;;;;37.97;23.17;;;-2.70;99.90;;;;;;5091794;28;20023;-59
2021/12/21 07:58:44;;;;;;;38.03;23.15;;;-2.60;99.90;;;;;;5092045;28;20024;-59
2021/12/21 08:01:11;;;;;;;44.60;25.02;;;-2.60;99.90;;;;;;5091648;28;20028;-60
2021/12/21 08:03:38;;;;;;;51.10;26.38;;;-2.60;99.90;;;;;;5091744;28;20035;-59
2021/12/21 08:06:06;;;;;;;39.53;24.55;;;-2.50;99.90;;;;;;5091951;28;20025;-60
2021/12/21 08:08:34;;;;;;;42.45;25.20;;;-2.50;99.90;;;;;;5091885;28;20329;-60
2021/12/21 08:11:14;;;;;;;42.20;26.02;;;-2.40;99.90;;;;;;5091704;28;20022;-59
2021/12/21 08:13:43;;;;;;;41.03;24.17;;;-2.40;99.90;;;;;;5091786;28;20034;-60
2021/12/21 08:16:09;;;;;;;41.05;23.63;;;-2.40;99.90;;;;;;5091527;28;20062;-59
2021/12/21 08:18:35;;;;;;;38.42;25.50;;;-2.40;99.90;;;;;;5091537;28;20032;-60
2021/12/21 08:21:02;;;;;;;39.47;23.45;;;-2.30;99.90;;;;;;5091730;28;20034;-60
2021/12/21 08:23:28;;;;;;;46.08;24.88;;;-2.20;99.90;;;;;;5091259;28;20073;-59
2021/12/21 08:25:56;;;;;;;37.58;23.00;;;-2.20;99.90;;;;;;5092080;28;20031;-59
2021/12/21 08:28:23;;;;;;;40.33;24.02;;;-2.20;99.90;;;;;;5091188;28;20062;-60
2021/12/21 08:30:49;;;;;;;41.55;23.75;;;-2.20;99.90;;;;;;5091642;28;20035;-60
2021/12/21 08:33:14;;;;;;;48.42;22.67;;;-2.20;99.90;;;;;;5091093;28;20241;-59
2021/12/21 08:35:40;;;;;;;37.13;24.08;;;-2.20;99.90;;;;;;5073311;28;20028;-59
2021/12/21 08:38:12;;;;;;;35.88;23.17;;;-2.20;99.90;;;;;;5091150;28;20035;-60
2021/12/21 08:40:39;;;;;;;35.42;23.25;;;-2.20;99.90;;;;;;5091085;28;20372;-59
2021/12/21 08:43:12;;;;;;;45.80;22.85;;;-2.10;99.90;;;;;;5091039;28;20522;-60
2021/12/21 08:45:39;;;;;;;40.67;23.27;;;-1.90;99.90;;;;;;5091207;28;20432;-60
2021/12/21 08:48:06;;;;;;;40.53;24.92;;;-1.80;99.90;;;;;;5091229;28;20126;-59
2021/12/21 08:50:33;;;;;;;37.53;23.60;;;-1.80;99.90;;;;;;5090967;28;20027;-59
2021/12/21 08:52:59;;;;;;;40.75;23.33;;;-1.60;99.90;;;;;;5090621;28;20032;-60
2021/12/21 08:55:25;;;;;;;41.03;24.65;;;-1.60;99.90;;;;;;5091032;28;20028;-59
2021/12/21 08:57:51;;;;;;;39.50;24.25;;;-1.50;99.90;;;;;;5090806;28;20021;-59
2021/12/21 09:00:16;;;;;;;36.42;24.67;;;-1.40;99.90;;;;;;5090953;28;20085;-60
2021/12/21 09:02:42;;;;;;;36.25;23.88;;;-1.40;99.90;;;;;;5090708;28;20035;-59
2021/12/21 09:05:18;;;;;;;40.15;23.17;;;-1.20;99.90;;;;;;5072628;28;20107;-60
2021/12/21 09:07:46;;;;;;;33.20;22.17;;;-1.20;99.90;;;;;;5090719;28;20360;-60
2021/12/21 09:10:13;;;;;;;38.17;21.85;;;-1.10;99.90;;;;;;5090597;28;20413;-60
2021/12/21 09:12:39;;;;;;;30.10;21.73;;;-1.10;99.90;;;;;;5090665;28;20016;-59
2021/12/21 09:15:06;;;;;;;28.08;20.17;;;-1.00;99.90;;;;;;5072166;28;20123;-60
2021/12/21 09:17:32;;;;;;;26.95;18.75;;;-1.00;99.90;;;;;;5090763;28;20044;-60
2021/12/21 09:19:58;;;;;;;27.75;19.00;;;-1.10;99.90;;;;;;5090734;28;20032;-60
2021/12/21 09:22:25;;;;;;;30.98;20.98;;;-1.10;99.90;;;;;;5090298;28;20354;-60
2021/12/21 09:24:51;;;;;;;75.15;41.05;;;-1.10;99.90;;;;;;5090418;28;20533;-59
2021/12/21 09:27:17;;;;;;;34.22;25.98;;;-1.00;99.90;;;;;;5072497;28;20024;-60
2021/12/21 09:29:43;;;;;;;41.90;26.05;;;-0.90;99.90;;;;;;5090516;28;20524;-60
2021/12/21 09:32:13;;;;;;;37.97;27.50;;;-0.70;99.90;;;;;;5090400;28;20110;-60
2021/12/21 09:34:39;;;;;;;48.67;43.72;;;-0.50;99.90;;;;;;5090509;28;20023;-60
2021/12/21 09:37:05;;;;;;;30.48;21.45;;;-0.30;99.90;;;;;;5089802;28;20024;-59
2021/12/21 09:39:31;;;;;;;24.10;19.88;;;-0.10;99.90;;;;;;5090429;28;20032;-60
2021/12/21 09:41:57;;;;;;;24.42;19.30;;;0.00;99.90;;;;;;5090293;28;20035;-60
2021/12/21 09:44:23;;;;;;;31.20;22.25;;;0.20;99.90;;;;;;5090525;28;20078;-60
2021/12/21 09:46:49;;;;;;;30.77;16.70;;;0.10;99.90;;;;;;5090262;28;20026;-59
2021/12/21 09:49:15;;;;;;;27.92;21.50;;;0.30;99.90;;;;;;5073346;28;20043;-59
2021/12/21 09:51:41;;;;;;;50.75;35.67;;;0.30;99.90;;;;;;5091568;28;20148;-59
2021/12/21 09:54:08;;;;;;;43.05;32.50;;;0.30;99.90;;;;;;5091174;28;20026;-60
2021/12/21 09:56:34;;;;;;;17.38;14.35;;;0.60;99.90;;;;;;5090601;28;20052;-59
2021/12/21 09:59:01;;;;;;;19.90;12.68;;;1.00;99.90;;;;;;5091157;28;20028;-60
2021/12/21 10:01:27;;;;;;;25.50;16.70;;;1.50;99.90;;;;;;5091063;28;20099;-60
2021/12/21 10:03:53;;;;;;;21.60;11.13;;;2.10;99.90;;;;;;5091352;28;20535;-60
2021/12/21 10:06:19;;;;;;;30.42;23.45;;;3.10;99.90;;;;;;5091216;28;20020;-60
2021/12/21 10:08:44;;;;;;;13.98;11.13;;;3.70;99.90;;;;;;5072966;28;20054;-61
2021/12/21 10:11:22;;;;;;;15.30;10.40;;;4.40;99.90;;;;;;5090772;28;20031;-61
2021/12/21 10:13:48;;;;;;;14.55;8.68;;;5.50;98.30;;;;;;5089807;28;20105;-61
2021/12/21 10:16:19;;;;;;;13.70;9.20;;;6.10;96.90;;;;;;5090045;28;20062;-61
2021/12/21 10:18:45;;;;;;;10.45;8.57;;;6.10;94.40;;;;;;5090817;28;20022;-60
2021/12/21 10:21:14;;;;;;;10.52;8.82;;;5.70;94.60;;;;;;5090864;28;20024;-61
2021/12/21 10:23:46;;;;;;;14.82;9.10;;;6.10;95.00;;;;;;5091028;28;20138;-61
2021/12/21 10:26:26;;;;;;;24.48;12.20;;;6.70;93.60;;;;;;5091170;28;20063;-61
2021/12/21 10:28:51;;;;;;;14.85;8.35;;;7.50;91.30;;;;;;5091220;28;20020;-61
2021/12/21 10:31:36;;;;;;;11.80;8.13;;;8.10;87.20;;;;;;5090588;28;20032;-61
2021/12/21 10:34:05;;;;;;;12.00;8.02;;;8.30;86.10;;;;;;5070778;28;20487;-62
2021/12/21 10:36:31;;;;;;;12.80;7.85;;;8.30;84.10;;;;;;5090120;28;20028;-61
2021/12/21 10:39:02;;;;;;;12.38;6.72;;;8.70;80.50;;;;;;5090683;28;20028;-61
2021/12/21 10:41:43;;;;;;;14.02;6.78;;;9.20;78.60;;;;;;5089934;28;20379;-61
2021/12/21 10:44:12;;;;;;;10.20;6.95;;;9.30;75.70;;;;;;5070619;28;20020;-62
2021/12/21 10:46:41;;;;;;;10.20;5.35;;;10.20;71.70;;;;;;5071961;28;20024;-61
2021/12/21 10:49:18;;;;;;;10.07;6.07;;;9.70;71.10;;;;;;5083083;28;20024;-61
2021/12/21 10:51:54;;;;;;;26.13;16.52;;;9.70;69.30;;;;;;5083626;28;20039;-61
2021/12/21 10:54:30;;;;;;;9.90;6.40;;;10.40;67.70;;;;;;5065530;28;20032;-61
2021/12/21 10:57:00;;;;;;;10.07;5.82;;;11.20;64.70;;;;;;5083613;28;20585;-61
2021/12/21 10:59:35;;;;;;;7.40;5.18;;;11.00;64.00;;;;;;5063921;28;20028;-62
2021/12/21 11:02:30;;;;;;;11.55;4.95;;;10.60;63.20;;;;;;5083100;28;20055;-61
2021/12/21 11:05:01;;;;;;;13.82;6.50;;;10.00;63.20;;;;;;5083145;28;20147;-61
2021/12/21 11:10:11;;;;;;;11.57;5.38;;;10.50;62.80;;;;;;5083392;28;20460;-61
2021/12/21 11:12:56;;;;;;;12.27;5.45;;;9.90;64.50;;;;;;5082957;28;20028;-62
2021/12/21 11:15:30;;;;;;;13.13;6.32;;;9.50;63.70;;;;;;5083446;28;20495;-61
2021/12/21 11:17:58;;;;;;;13.35;6.32;;;9.50;63.50;;;;;;5082756;28;20048;-62
2021/12/21 11:20:25;;;;;;;10.60;5.45;;;9.60;63.00;;;;;;5082558;28;20387;-61
2021/12/21 11:22:52;;;;;;;8.32;5.22;;;9.60;62.10;;;;;;5083499;28;20057;-61
2021/12/21 11:25:18;;;;;;;6.65;4.85;;;10.30;61.90;;;;;;5082193;28;20032;-62
2021/12/21 11:27:44;;;;;;;8.52;5.75;;;10.20;60.60;;;;;;5083061;28;20172;-61
2021/12/21 11:30:16;;;;;;;6.10;4.72;;;10.00;61.70;;;;;;5083372;28;20107;-61
2021/12/21 11:32:45;;;;;;;9.20;5.32;;;10.60;59.80;;;;;;5082834;28;20034;-62
2021/12/21 11:37:47;;;;;;;8.55;4.82;;;10.10;60.40;;;;;;5083176;28;20032;-61
2021/12/21 11:40:16;;;;;;;16.52;5.50;;;10.00;59.60;;;;;;5082147;28;20051;-61
2021/12/21 11:42:50;;;;;;;8.55;5.35;;;9.70;60.30;;;;;;5082915;28;20034;-61
2021/12/21 11:45:57;;;;;;;11.25;5.15;;;10.00;61.00;;;;;;5082180;28;20052;-60
2021/12/21 11:48:52;;;;;;;8.30;5.30;;;10.00;59.00;;;;;;5049980;28;20307;-61
2021/12/21 11:51:25;;;;;;;12.70;5.43;;;10.40;58.60;;;;;;5081617;28;20150;-61
2021/12/21 11:53:51;;;;;;;13.70;7.53;;;11.00;56.30;;;;;;5064443;28;20540;-61
2021/12/21 11:56:21;;;;;;;7.85;4.93;;;11.10;56.70;;;;;;5083272;28;20038;-61
2021/12/21 11:58:50;;;;;;;8.85;4.90;;;10.40;56.00;;;;;;5092480;28;20051;-62
2021/12/21 12:01:43;;;;;;;6.93;4.80;;;10.50;56.10;;;;;;5092573;28;20020;-61
2021/12/21 12:04:11;;;;;;;6.03;4.80;;;10.30;56.60;;;;;;5092577;28;20024;-61
2021/12/21 12:06:55;;;;;;;5.82;4.63;;;9.20;58.50;;;;;;5093024;28;20596;-61
2021/12/21 12:09:30;;;;;;;9.52;5.97;;;8.60;61.00;;;;;;5093039;28;20118;-60
2021/12/21 12:12:17;;;;;;;9.18;5.68;;;7.50;63.70;;;;;;5093089;28;20028;-60
2021/12/21 12:14:45;;;;;;;10.05;6.00;;;6.50;67.30;;;;;;5092861;28;20418;-60
2021/12/21 12:17:26;;;;;;;11.93;6.85;;;6.40;68.00;;;;;;5092610;28;20086;-60
2021/12/21 12:20:00;;;;;;;10.00;5.20;;;6.60;67.30;;;;;;5092854;28;20035;-61
2021/12/21 12:22:41;;;;;;;;;;;6.30;69.00;;;;;;5093040;28;20066;-60
2021/12/21 12:25:23;;;;;;;9.07;5.90;;;5.80;69.10;;;;;;5092476;28;19995;-60
2021/12/21 12:27:52;;;;;;;9.45;5.60;;;5.30;71.10;;;;;;5092775;28;20024;-60
2021/12/21 12:30:21;;;;;;;10.70;6.85;;;5.40;71.70;;;;;;5092405;28;20063;-60
2021/12/21 12:32:56;;;;;;;9.82;6.35;;;5.30;73.20;;;;;;5091512;28;20486;-60
2021/12/21 12:35:25;;;;;;;8.57;5.80;;;5.10;73.40;;;;;;5092379;28;20088;-60
2021/12/21 12:37:58;;;;;;;8.95;5.72;;;5.00;74.00;;;;;;5092762;28;20370;-60
2021/12/21 12:40:45;;;;;;;7.25;5.15;;;5.30;74.50;;;;;;5074409;28;20612;-60
2021/12/21 12:43:17;;;;;;;11.25;5.38;;;5.30;73.50;;;;;;5091205;28;20062;-60
2021/12/21 12:45:51;;;;;;;9.57;6.25;;;5.40;74.10;;;;;;5090289;28;20048;-60
2021/12/21 12:48:26;;;;;;;;;;;5.20;74.30;;;;;;5091022;28;20375;-60
2021/12/21 12:50:54;;;;;;;9.82;5.47;;;4.60;75.80;;;;;;5090998;28;20364;-60
2021/12/21 12:53:21;;;;;;;6.22;5.03;;;4.50;76.60;;;;;;5090526;28;20467;-60
2021/12/21 12:55:53;;;;;;;7.80;6.25;;;4.30;77.20;;;;;;5072012;28;20023;-61
2021/12/21 12:58:22;;;;;;;6.67;5.90;;;4.50;76.80;;;;;;5090911;28;20016;-61
2021/12/21 13:01:00;;;;;;;5.70;5.20;;;5.10;76.80;;;;;;5091126;28;20502;-62
2021/12/21 13:03:42;;;;;;;6.18;5.18;;;5.60;75.70;;;;;;5090766;28;20031;-60
2021/12/21 13:06:13;;;;;;;6.55;5.00;;;5.80;73.50;;;;;;5090771;28;20016;-61
2021/12/21 13:08:39;;;;;;;6.93;5.53;;;6.30;73.00;;;;;;5090946;28;20042;-60
2021/12/21 13:11:06;;;;;;;7.80;4.07;;;7.90;69.20;;;;;;5090122;28;20023;-60
2021/12/21 13:13:40;;;;;;;7.50;4.82;;;9.00;65.10;;;;;;5090976;28;20111;-61
2021/12/21 13:16:09;;;;;;;9.10;3.55;;;9.40;62.20;;;;;;5090426;28;20044;-61
2021/12/21 13:18:45;;;;;;;6.43;3.80;;;10.10;59.80;;;;;;5090863;28;20032;-61
2021/12/21 13:21:25;;;;;;;4.80;3.78;;;10.10;58.90;;;;;;5090729;28;20024;-61
2021/12/21 13:24:01;;;;;;;5.50;4.00;;;10.30;57.60;;;;;;5090623;28;20027;-61
2021/12/21 13:26:51;;;;;;;4.95;3.83;;;10.30;55.80;;;;;;5090594;28;20374;-61
2021/12/21 13:29:18;;;;;;;7.18;3.83;;;10.00;56.80;;;;;;5090629;28;20016;-61
2021/12/21 13:31:52;;;;;;;5.53;3.53;;;9.90;56.30;;;;;;5090749;28;20024;-61
2021/12/21 13:34:21;;;;;;;;;;;11.00;54.00;;;;;;5091011;28;20099;-61
2021/12/21 13:37:03;;;;;;;11.90;4.18;;;11.30;51.50;;;;;;5090794;28;19927;-60
2021/12/21 13:39:34;;;;;;;10.90;3.47;;;10.30;52.50;;;;;;5090796;28;20050;-61
2021/12/21 13:42:04;;;;;;;3.40;2.80;;;10.60;52.10;;;;;;5090574;28;20024;-61
2021/12/21 13:44:36;;;;;;;7.38;3.35;;;10.60;50.90;;;;;;5090311;28;20020;-61
2021/12/21 13:47:14;;;;;;;3.20;2.90;;;10.90;51.70;;;;;;5090523;28;20021;-61
2021/12/21 13:49:59;;;;;;;3.95;2.92;;;11.70;49.60;;;;;;5089901;28;20016;-61
2021/12/21 13:52:30;;;;;;;5.50;3.03;;;10.80;50.50;;;;;;5090431;28;20028;-61
2021/12/21 13:54:56;;;;;;;6.80;3.67;;;11.20;51.00;;;;;;5090345;28;20604;-60
2021/12/21 13:57:23;;;;;;;6.80;4.10;;;10.70;50.80;;;;;;5090308;28;20040;-60
2021/12/21 13:59:54;;;;;;;5.65;2.88;;;10.60;49.90;;;;;;5090346;28;20443;-60
2021/12/21 14:02:26;;;;;;;3.97;2.97;;;10.50;48.70;;;;;;5090134;28;20020;-60
2021/12/21 14:05:00;;;;;;;8.53;2.97;;;10.20;50.00;;;;;;5072259;28;20605;-60
2021/12/21 14:07:29;;;;;;;5.90;3.10;;;11.20;49.30;;;;;;5090387;28;20024;-60
2021/12/21 14:10:04;;;;;;;5.45;3.88;;;10.40;49.70;;;;;;5090265;28;20149;-60
2021/12/21 14:12:30;;;;;;;4.22;3.33;;;9.80;51.00;;;;;;5090117;28;20479;-61